Time;durP1;ratioP1;P1;durP2;ratioP2;P2;SDS_P1;SDS_P2;PMS_P1;PMS_P2;Temp;Humidity;BMP_temperature;BMP_pressure;BME280_temperature;BME280_humidity;BME280_pressure;Samples;Min_cycle;Max_cycle;Signal;HPM_P1;HPM_P2
2022/03/14 00:01:58;;;;;;;1.90;1.63;;;20.90;53.50;;;;;;4990873;28;88018;-68
2022/03/14 00:04:24;;;;;;;2.10;1.90;;;20.90;53.40;;;;;;4989911;28;88475;-68
2022/03/14 00:06:49;;;;;;;2.75;2.05;;;20.90;53.40;;;;;;4989897;28;88064;-68
2022/03/14 00:09:18;;;;;;;1.63;1.48;;;20.90;53.30;;;;;;4988761;28;87748;-68
2022/03/14 00:11:44;;;;;;;2.38;1.88;;;20.90;53.20;;;;;;4988280;28;89845;-68
2022/03/14 00:14:10;;;;;;;2.17;1.98;;;20.90;53.30;;;;;;4990648;28;87152;-68
2022/03/14 00:16:38;;;;;;;2.05;1.85;;;20.90;53.40;;;;;;4990430;28;87922;-68
2022/03/14 00:19:06;;;;;;;2.08;1.88;;;20.80;53.20;;;;;;4989883;28;88116;-68
2022/03/14 00:21:38;;;;;;;2.65;1.92;;;20.90;53.20;;;;;;4989999;28;87789;-67
2022/03/14 00:24:06;;;;;;;1.67;1.38;;;20.80;53.20;;;;;;4990672;28;87713;-68
2022/03/14 00:26:32;;;;;;;2.08;1.88;;;20.80;53.30;;;;;;4989751;28;86947;-68
2022/03/14 00:28:58;;;;;;;3.05;1.98;;;20.80;53.30;;;;;;4989478;28;89052;-68
2022/03/14 00:31:24;;;;;;;3.60;1.80;;;20.80;53.10;;;;;;4989867;28;88719;-68
2022/03/14 00:33:50;;;;;;;2.65;1.60;;;20.80;53.10;;;;;;4989168;28;87225;-68
2022/03/14 00:36:16;;;;;;;1.88;1.73;;;20.80;53.30;;;;;;5005388;28;89446;-68
2022/03/14 00:38:41;;;;;;;1.77;1.67;;;20.80;53.30;;;;;;5004879;28;90964;-68
2022/03/14 00:41:09;;;;;;;1.70;1.60;;;20.80;53.30;;;;;;4989855;28;87714;-68
2022/03/14 00:43:35;;;;;;;1.67;1.58;;;20.80;53.20;;;;;;4988690;28;86891;-68
2022/03/14 00:46:02;;;;;;;3.30;1.88;;;20.80;53.20;;;;;;4988916;28;87234;-68
2022/03/14 00:48:28;;;;;;;2.45;1.60;;;20.80;53.20;;;;;;4990098;28;87426;-68
2022/03/14 00:50:54;;;;;;;3.00;2.17;;;20.80;53.20;;;;;;4989537;28;88105;-68
2022/03/14 00:53:20;;;;;;;2.05;1.85;;;20.80;53.30;;;;;;4989065;28;88887;-68
2022/03/14 00:55:46;;;;;;;1.98;1.73;;;20.80;53.20;;;;;;4989378;28;88702;-68
2022/03/14 00:58:12;;;;;;;1.67;1.58;;;20.80;53.20;;;;;;5004707;28;91200;-67
2022/03/14 01:00:38;;;;;;;1.83;1.60;;;20.80;53.10;;;;;;4989219;28;88148;-68
2022/03/14 01:03:03;;;;;;;1.80;1.70;;;20.80;53.30;;;;;;4990067;28;87852;-69
2022/03/14 01:05:29;;;;;;;4.63;1.83;;;20.80;53.10;;;;;;4989640;28;87486;-69
2022/03/14 01:07:55;;;;;;;1.60;1.27;;;20.80;53.10;;;;;;4989775;28;87996;-68
2022/03/14 01:10:23;;;;;;;1.50;1.40;;;20.80;53.10;;;;;;4989384;28;87295;-69
2022/03/14 01:12:49;;;;;;;1.85;1.65;;;20.70;53.00;;;;;;4989768;28;87464;-69
2022/03/14 01:15:15;;;;;;;2.15;1.60;;;20.70;53.10;;;;;;4989981;28;87487;-69
2022/03/14 01:17:41;;;;;;;1.90;1.65;;;20.70;53.00;;;;;;5003021;28;90526;-68
2022/03/14 01:20:09;;;;;;;2.58;1.63;;;20.80;52.90;;;;;;5002178;28;90234;-68
2022/03/14 01:22:36;;;;;;;1.85;1.45;;;20.70;53.00;;;;;;4988419;28;88160;-68
2022/03/14 01:25:05;;;;;;;1.70;1.60;;;20.70;53.00;;;;;;4987471;28;89862;-68
2022/03/14 01:27:31;;;;;;;1.63;1.52;;;20.70;53.20;;;;;;4989521;28;89030;-68
2022/03/14 01:29:57;;;;;;;1.90;1.70;;;20.70;53.10;;;;;;4989180;28;87857;-68
2022/03/14 01:32:23;;;;;;;2.10;1.77;;;20.70;53.10;;;;;;4989903;28;87553;-68
2022/03/14 01:34:48;;;;;;;2.08;1.80;;;20.70;53.60;;;;;;4988872;28;86939;-69
2022/03/14 01:37:17;;;;;;;1.60;1.50;;;20.70;52.80;;;;;;4988824;28;87642;-69
2022/03/14 01:39:43;;;;;;;1.75;1.60;;;20.70;52.90;;;;;;5003842;28;91047;-69
2022/03/14 01:42:15;;;;;;;2.03;1.45;;;20.70;52.90;;;;;;4987391;28;88534;-69
2022/03/14 01:44:41;;;;;;;3.25;1.80;;;20.70;53.00;;;;;;4987952;28;87722;-68
2022/03/14 01:47:07;;;;;;;1.50;1.40;;;20.70;53.10;;;;;;4976600;28;91269;-69
2022/03/14 01:49:32;;;;;;;1.60;1.50;;;20.70;53.00;;;;;;4989295;28;87340;-69
2022/03/14 01:51:59;;;;;;;1.60;1.50;;;20.70;53.00;;;;;;4989116;28;87377;-68
2022/03/14 01:54:25;;;;;;;1.83;1.50;;;20.70;53.00;;;;;;4988837;28;88544;-69
2022/03/14 01:56:51;;;;;;;2.00;1.80;;;20.60;52.80;;;;;;4988393;28;88056;-69
2022/03/14 01:59:19;;;;;;;2.17;1.50;;;20.60;53.00;;;;;;4988495;28;88796;-68
2022/03/14 02:01:45;;;;;;;1.75;1.65;;;20.60;52.80;;;;;;4988706;28;87712;-69
2022/03/14 02:04:10;;;;;;;1.55;1.42;;;20.70;53.00;;;;;;4988350;28;87758;-68
2022/03/14 02:06:37;;;;;;;1.63;1.52;;;20.60;52.90;;;;;;4988010;28;90352;-68
2022/03/14 02:09:03;;;;;;;1.80;1.70;;;20.60;53.10;;;;;;4988811;28;88997;-68
2022/03/14 02:11:29;;;;;;;1.75;1.60;;;20.60;53.00;;;;;;4989764;28;87180;-68
2022/03/14 02:13:55;;;;;;;1.77;1.40;;;20.60;52.80;;;;;;4991722;28;87854;-68
2022/03/14 02:16:20;;;;;;;2.08;1.70;;;20.60;52.80;;;;;;4991907;28;88135;-68
2022/03/14 02:18:46;;;;;;;1.60;1.50;;;20.60;52.80;;;;;;4992400;28;88313;-68
2022/03/14 02:21:13;;;;;;;2.17;1.70;;;20.60;52.80;;;;;;5006247;28;87130;-68
2022/03/14 02:23:40;;;;;;;1.75;1.58;;;20.60;52.80;;;;;;4992516;28;86841;-68
2022/03/14 02:26:06;;;;;;;1.65;1.50;;;20.60;52.90;;;;;;4992473;28;88168;-68
2022/03/14 02:28:32;;;;;;;1.80;1.63;;;20.60;52.80;;;;;;4991919;28;87989;-68
2022/03/14 02:30:57;;;;;;;1.50;1.40;;;20.60;52.70;;;;;;4992216;28;88898;-68
2022/03/14 02:33:23;;;;;;;1.60;1.50;;;20.60;52.70;;;;;;4991682;28;87556;-68
2022/03/14 02:35:49;;;;;;;1.52;1.42;;;20.60;52.80;;;;;;4991690;28;88908;-68
2022/03/14 02:38:16;;;;;;;1.70;1.60;;;20.50;52.70;;;;;;4991086;28;87681;-68
2022/03/14 02:40:48;;;;;;;2.25;1.48;;;20.50;52.70;;;;;;4991929;28;86955;-68
2022/03/14 02:43:22;;;;;;;1.55;1.45;;;20.50;52.70;;;;;;4990964;28;87984;-68
2022/03/14 02:45:48;;;;;;;1.75;1.63;;;20.50;52.60;;;;;;4991150;28;88292;-68
2022/03/14 02:48:14;;;;;;;1.45;1.35;;;20.50;52.70;;;;;;4991682;28;88070;-68
2022/03/14 02:50:42;;;;;;;1.40;1.30;;;20.50;52.60;;;;;;4991365;28;87897;-68
2022/03/14 02:53:09;;;;;;;2.40;1.70;;;20.50;52.80;;;;;;5006045;28;88676;-68
2022/03/14 02:55:37;;;;;;;2.38;1.60;;;20.50;52.70;;;;;;4990573;28;89210;-68
2022/03/14 02:58:04;;;;;;;2.03;1.52;;;20.50;52.70;;;;;;4990720;28;89796;-68
2022/03/14 03:00:30;;;;;;;1.67;1.50;;;20.50;52.70;;;;;;4990697;28;87276;-68
2022/03/14 03:02:56;;;;;;;1.55;1.45;;;20.50;52.60;;;;;;4996893;28;88277;-68
2022/03/14 03:05:22;;;;;;;1.75;1.65;;;20.50;52.50;;;;;;4989775;28;88066;-68
2022/03/14 03:07:48;;;;;;;2.55;1.88;;;20.50;52.60;;;;;;4990290;28;87730;-68
2022/03/14 03:10:23;;;;;;;1.58;1.38;;;20.50;52.50;;;;;;4990367;28;87635;-68
2022/03/14 03:12:49;;;;;;;1.55;1.35;;;20.50;52.60;;;;;;4990483;28;87098;-69
2022/03/14 03:15:15;;;;;;;1.50;1.40;;;20.50;52.50;;;;;;4990143;28;88249;-68
2022/03/14 03:17:41;;;;;;;2.22;1.40;;;20.50;52.70;;;;;;4990533;28;87725;-68
2022/03/14 03:20:08;;;;;;;1.50;1.40;;;20.50;52.70;;;;;;5005390;28;88593;-68
2022/03/14 03:22:34;;;;;;;1.40;1.30;;;20.50;52.80;;;;;;4989903;28;87623;-68
2022/03/14 03:25:00;;;;;;;1.40;1.30;;;20.50;52.70;;;;;;4990040;28;87972;-68
2022/03/14 03:27:26;;;;;;;1.38;1.27;;;20.50;52.70;;;;;;4990780;28;87660;-68
2022/03/14 03:29:51;;;;;;;1.45;1.35;;;20.50;52.80;;;;;;5006918;28;87130;-68
2022/03/14 03:32:17;;;;;;;1.98;1.70;;;20.50;52.70;;;;;;4991074;28;87445;-68
2022/03/14 03:34:43;;;;;;;1.52;1.33;;;20.50;52.80;;;;;;4990976;28;87842;-68
2022/03/14 03:37:08;;;;;;;1.70;1.60;;;20.40;52.50;;;;;;4991541;28;87212;-68
2022/03/14 03:39:34;;;;;;;2.00;1.85;;;20.40;52.70;;;;;;4991703;28;87196;-68
2022/03/14 03:42:00;;;;;;;1.30;1.20;;;20.40;52.70;;;;;;4991372;28;87561;-68
2022/03/14 03:44:25;;;;;;;1.67;1.30;;;20.40;52.70;;;;;;4988206;28;89385;-68
2022/03/14 03:46:51;;;;;;;1.88;1.77;;;20.40;52.60;;;;;;4990633;28;89501;-68
2022/03/14 03:49:17;;;;;;;1.58;1.48;;;20.40;52.50;;;;;;4990828;28;87467;-68
2022/03/14 03:51:42;;;;;;;1.30;1.20;;;20.40;52.60;;;;;;4991121;28;87096;-68
2022/03/14 03:54:08;;;;;;;1.50;1.40;;;20.40;52.60;;;;;;4989861;28;90036;-68
2022/03/14 03:56:34;;;;;;;1.40;1.30;;;20.40;52.60;;;;;;4990158;28;87720;-68
2022/03/14 03:59:00;;;;;;;1.73;1.35;;;20.40;52.70;;;;;;4991420;28;87833;-68
2022/03/14 04:01:29;;;;;;;1.52;1.42;;;20.40;52.70;;;;;;4990515;28;87121;-68
2022/03/14 04:03:54;;;;;;;1.30;1.20;;;20.40;52.60;;;;;;4990470;28;87675;-68
2022/03/14 04:06:30;;;;;;;1.30;1.20;;;20.40;52.60;;;;;;4990015;28;88267;-68
2022/03/14 04:09:00;;;;;;;1.13;1.02;;;20.40;52.70;;;;;;4989108;28;88017;-68
2022/03/14 04:11:27;;;;;;;1.40;1.30;;;20.40;52.40;;;;;;4989637;28;87271;-68
2022/03/14 04:13:54;;;;;;;1.40;1.30;;;20.40;52.60;;;;;;5005284;28;91813;-68
2022/03/14 04:16:22;;;;;;;1.60;1.50;;;20.40;52.40;;;;;;4990550;28;88698;-68
2022/03/14 04:18:48;;;;;;;1.50;1.40;;;20.40;52.60;;;;;;4980018;28;87564;-69
2022/03/14 04:21:15;;;;;;;1.45;1.30;;;20.40;52.60;;;;;;5004009;28;87966;-70
2022/03/14 04:23:41;;;;;;;1.65;1.55;;;20.40;52.60;;;;;;4989664;28;87791;-70
2022/03/14 04:26:07;;;;;;;1.33;1.23;;;20.40;52.60;;;;;;4989641;28;87767;-70
2022/03/14 04:28:36;;;;;;;1.70;1.35;;;20.40;52.50;;;;;;4989905;28;87916;-70
2022/03/14 04:31:03;;;;;;;1.40;1.30;;;20.40;52.40;;;;;;4989662;28;87353;-70
2022/03/14 04:33:30;;;;;;;1.40;1.30;;;20.40;52.40;;;;;;4988815;28;90380;-70
2022/03/14 04:35:56;;;;;;;1.67;1.45;;;20.30;52.40;;;;;;4988500;28;89036;-70
2022/03/14 04:38:22;;;;;;;1.67;1.48;;;20.30;52.40;;;;;;4990251;28;87531;-70
2022/03/14 04:40:48;;;;;;;1.30;1.10;;;20.40;52.50;;;;;;4989673;28;87427;-70
2022/03/14 04:43:14;;;;;;;1.42;1.33;;;20.30;52.40;;;;;;4988926;28;87978;-70
2022/03/14 04:45:40;;;;;;;1.40;1.30;;;20.40;52.50;;;;;;4988090;28;88210;-70
2022/03/14 04:48:06;;;;;;;1.52;1.20;;;20.30;52.60;;;;;;4990539;28;87665;-70
2022/03/14 04:50:33;;;;;;;1.27;1.17;;;20.30;52.50;;;;;;4989988;28;87055;-70
2022/03/14 04:52:58;;;;;;;1.40;1.30;;;20.30;52.50;;;;;;4989090;28;88714;-71
2022/03/14 04:55:24;;;;;;;1.58;1.25;;;20.30;52.50;;;;;;4988733;28;88373;-70
2022/03/14 04:57:50;;;;;;;1.45;1.33;;;20.30;52.60;;;;;;4988059;28;88202;-70
2022/03/14 05:00:17;;;;;;;1.52;1.40;;;20.30;52.60;;;;;;4988841;28;87256;-70
2022/03/14 05:02:43;;;;;;;1.45;1.30;;;20.30;52.50;;;;;;4989683;28;88008;-69
2022/03/14 05:05:11;;;;;;;2.22;1.60;;;20.30;52.50;;;;;;4989767;28;87016;-69
2022/03/14 05:07:37;;;;;;;1.40;1.30;;;20.30;52.40;;;;;;4989658;28;87353;-69
2022/03/14 05:10:06;;;;;;;1.50;1.40;;;20.30;52.60;;;;;;4988858;28;87632;-69
2022/03/14 05:12:32;;;;;;;1.37;1.27;;;20.30;52.40;;;;;;4989712;28;87905;-68
2022/03/14 05:14:58;;;;;;;1.50;1.40;;;20.30;52.50;;;;;;4990164;28;87176;-70
2022/03/14 05:17:25;;;;;;;1.90;1.60;;;20.30;52.50;;;;;;4989931;28;87668;-68
2022/03/14 05:19:50;;;;;;;1.20;1.10;;;20.30;52.40;;;;;;4988886;28;87456;-68
2022/03/14 05:22:17;;;;;;;1.50;1.40;;;20.30;52.50;;;;;;4988225;28;88630;-69
2022/03/14 05:24:43;;;;;;;1.20;1.10;;;20.30;52.40;;;;;;4988895;28;88144;-68
2022/03/14 05:27:09;;;;;;;1.48;1.38;;;20.30;52.50;;;;;;4988472;28;87769;-69
2022/03/14 05:29:34;;;;;;;1.48;1.38;;;20.20;52.30;;;;;;5003815;28;87852;-68
2022/03/14 05:32:00;;;;;;;1.30;1.20;;;20.30;52.30;;;;;;5003918;28;90710;-69
2022/03/14 05:34:26;;;;;;;1.58;1.40;;;20.20;52.30;;;;;;4988284;28;87534;-68
2022/03/14 05:36:52;;;;;;;1.40;1.30;;;20.20;52.20;;;;;;4989196;28;87680;-68
2022/03/14 05:39:18;;;;;;;1.75;1.40;;;20.20;52.30;;;;;;4989825;28;86747;-68
2022/03/14 05:41:43;;;;;;;1.42;1.25;;;20.30;52.30;;;;;;4989444;28;87978;-68
2022/03/14 05:44:09;;;;;;;1.55;1.45;;;20.20;52.40;;;;;;4987797;28;86973;-69
2022/03/14 05:46:35;;;;;;;1.70;1.40;;;20.20;52.20;;;;;;4987526;28;88796;-69
2022/03/14 05:49:01;;;;;;;1.20;1.10;;;20.20;52.50;;;;;;4992253;28;87119;-68
2022/03/14 05:51:29;;;;;;;1.20;1.10;;;20.30;53.00;;;;;;4992367;28;88217;-68
2022/03/14 05:53:55;;;;;;;3.13;1.20;;;20.20;52.30;;;;;;4983091;28;90309;-69
2022/03/14 05:56:20;;;;;;;1.40;1.30;;;20.20;52.30;;;;;;4993130;28;87861;-69
2022/03/14 05:58:46;;;;;;;1.73;1.40;;;20.20;52.30;;;;;;4991654;28;86971;-69
2022/03/14 06:01:12;;;;;;;1.63;1.20;;;20.20;52.20;;;;;;4991872;28;87371;-69
2022/03/14 06:03:37;;;;;;;2.13;1.60;;;20.30;52.40;;;;;;4993310;28;88268;-68
2022/03/14 06:06:03;;;;;;;1.77;1.52;;;20.30;52.70;;;;;;4992589;28;87890;-68
2022/03/14 06:08:29;;;;;;;2.53;1.50;;;20.30;52.80;;;;;;4991379;28;87689;-69
2022/03/14 06:10:54;;;;;;;1.70;1.60;;;20.40;52.60;;;;;;4990606;28;89157;-68
2022/03/14 06:13:20;;;;;;;3.53;1.48;;;20.30;53.00;;;;;;4990567;28;88639;-69
2022/03/14 06:15:47;;;;;;;4.10;1.70;;;20.40;53.10;;;;;;4992044;28;87116;-68
2022/03/14 06:18:14;;;;;;;3.20;1.60;;;20.50;53.10;;;;;;4990732;28;88282;-68
2022/03/14 06:20:39;;;;;;;3.13;1.73;;;20.50;53.40;;;;;;4976461;28;91102;-69
2022/03/14 06:23:05;;;;;;;1.50;1.40;;;20.50;53.20;;;;;;4990982;28;87390;-69
2022/03/14 06:25:31;;;;;;;2.70;1.65;;;20.60;53.30;;;;;;4992177;28;87796;-69
2022/03/14 06:27:57;;;;;;;1.58;1.48;;;20.60;53.20;;;;;;4992361;28;86916;-69
2022/03/14 06:30:24;;;;;;;4.25;1.73;;;20.60;53.10;;;;;;4992330;28;88077;-69
2022/03/14 06:32:50;;;;;;;2.80;1.55;;;20.60;52.80;;;;;;4991767;28;88525;-69
2022/03/14 06:35:17;;;;;;;5.78;1.50;;;20.60;53.20;;;;;;4989987;28;88924;-69
2022/03/14 06:37:44;;;;;;;2.58;1.73;;;20.70;53.30;;;;;;4991893;28;87048;-70
2022/03/14 06:40:10;;;;;;;3.10;1.70;;;20.70;52.80;;;;;;4991759;28;88189;-70
2022/03/14 06:42:41;;;;;;;4.43;1.48;;;20.70;52.90;;;;;;5006649;28;88976;-69
2022/03/14 06:45:09;;;;;;;1.60;1.30;;;20.60;53.80;;;;;;4991205;28;87668;-70
2022/03/14 06:47:36;;;;;;;1.60;1.30;;;20.60;53.80;;;;;;4991742;28;87489;-70
2022/03/14 06:50:02;;;;;;;3.33;1.50;;;20.60;53.10;;;;;;4991211;28;87960;-69
2022/03/14 06:52:27;;;;;;;1.50;1.33;;;20.60;52.80;;;;;;4991779;28;87276;-69
2022/03/14 06:54:53;;;;;;;2.95;1.40;;;20.60;53.00;;;;;;4991065;28;87272;-70
2022/03/14 06:57:19;;;;;;;2.17;1.60;;;20.60;53.30;;;;;;4990065;28;87880;-69
2022/03/14 06:59:45;;;;;;;3.35;1.65;;;20.60;53.30;;;;;;4990926;28;89471;-70
2022/03/14 07:02:11;;;;;;;2.58;1.30;;;20.50;53.30;;;;;;5006465;28;91139;-68
2022/03/14 07:04:37;;;;;;;3.03;1.60;;;20.60;53.30;;;;;;4991674;28;88121;-68
2022/03/14 07:07:03;;;;;;;2.60;1.52;;;20.50;53.40;;;;;;5007160;28;89733;-69
2022/03/14 07:09:30;;;;;;;1.80;1.42;;;20.50;53.30;;;;;;4989524;28;88122;-71
2022/03/14 07:11:56;;;;;;;3.28;1.50;;;20.50;53.30;;;;;;4990244;28;87768;-67
2022/03/14 07:14:22;;;;;;;4.30;1.42;;;20.50;53.40;;;;;;4991752;28;87952;-68
2022/03/14 07:16:49;;;;;;;3.10;1.20;;;20.50;53.10;;;;;;4990203;28;87350;-67
2022/03/14 07:19:15;;;;;;;3.58;1.63;;;20.50;53.30;;;;;;4990331;28;87714;-68
2022/03/14 07:21:40;;;;;;;3.55;1.30;;;20.50;53.20;;;;;;4996167;28;88176;-68
2022/03/14 07:24:07;;;;;;;4.65;1.67;;;20.50;53.10;;;;;;4991281;28;88651;-69
2022/03/14 07:26:32;;;;;;;5.10;1.70;;;20.50;53.40;;;;;;4991895;28;87511;-69
2022/03/14 07:28:58;;;;;;;3.90;1.90;;;20.50;53.30;;;;;;4991187;28;88857;-68
2022/03/14 07:31:24;;;;;;;3.17;1.50;;;20.50;53.60;;;;;;5005846;28;91023;-68
2022/03/14 07:33:51;;;;;;;2.40;1.45;;;20.50;53.80;;;;;;4990677;28;87895;-68
2022/03/14 07:36:17;;;;;;;5.53;1.63;;;20.60;53.60;;;;;;4990674;28;87464;-68
2022/03/14 07:38:43;;;;;;;7.35;1.88;;;20.70;53.60;;;;;;4991001;28;88639;-68
2022/03/14 07:41:09;;;;;;;4.15;1.40;;;20.70;53.70;;;;;;4990355;28;87020;-68
2022/03/14 07:43:35;;;;;;;7.40;2.20;;;20.60;53.90;;;;;;4988639;28;87707;-68
2022/03/14 07:46:01;;;;;;;6.95;3.15;;;20.70;53.30;;;;;;4988499;28;88965;-68
2022/03/14 07:48:28;;;;;;;8.27;2.92;;;20.80;52.60;;;;;;5004378;28;92444;-68
2022/03/14 07:50:53;;;;;;;12.13;3.30;;;20.80;52.40;;;;;;4987660;28;90635;-68
2022/03/14 07:53:19;;;;;;;7.45;2.80;;;20.80;52.60;;;;;;4986723;28;88333;-69
2022/03/14 07:55:45;;;;;;;9.02;2.97;;;20.90;52.10;;;;;;4990834;28;87870;-69
2022/03/14 07:58:11;;;;;;;7.90;3.25;;;20.90;52.00;;;;;;4989894;28;88440;-70
2022/03/14 08:00:37;;;;;;;11.55;3.10;;;20.90;51.70;;;;;;5004443;28;91338;-69
2022/03/14 08:03:03;;;;;;;9.50;3.40;;;20.90;51.30;;;;;;5004499;28;87785;-69
2022/03/14 08:05:29;;;;;;;11.75;4.07;;;20.90;50.90;;;;;;4990004;28;86895;-70
2022/03/14 08:07:55;;;;;;;11.05;3.67;;;20.90;51.10;;;;;;4989837;28;87839;-69
2022/03/14 08:10:21;;;;;;;12.00;3.90;;;20.90;50.60;;;;;;4988100;28;88258;-69
2022/03/14 08:12:57;;;;;;;12.38;3.15;;;20.90;50.40;;;;;;4989426;28;89130;-69
2022/03/14 08:15:31;;;;;;;9.55;3.10;;;20.90;50.60;;;;;;4965046;28;87470;-69
2022/03/14 08:17:59;;;;;;;11.25;3.10;;;20.90;52.20;;;;;;4989991;28;88085;-69
2022/03/14 08:20:26;;;;;;;16.55;4.07;;;20.90;52.90;;;;;;4986894;28;87960;-69
2022/03/14 08:22:53;;;;;;;15.35;4.05;;;20.90;50.20;;;;;;4987550;28;87024;-69
2022/03/14 08:25:20;;;;;;;7.95;3.47;;;21.00;51.10;;;;;;4989838;28;88113;-69
2022/03/14 08:27:46;;;;;;;8.73;3.42;;;21.00;51.70;;;;;;5004805;28;91458;-69
2022/03/14 08:30:12;;;;;;;13.48;4.13;;;21.00;51.70;;;;;;4988334;28;87816;-69
2022/03/14 08:32:39;;;;;;;11.60;3.78;;;21.00;51.70;;;;;;4988202;28;87703;-69
2022/03/14 08:35:08;;;;;;;8.65;3.58;;;21.00;51.60;;;;;;4987519;28;89136;-69
2022/03/14 08:37:40;;;;;;;11.47;3.67;;;21.00;51.50;;;;;;4989067;28;88518;-69
2022/03/14 08:40:09;;;;;;;15.50;4.32;;;21.00;51.60;;;;;;5004181;28;91582;-69
2022/03/14 08:42:35;;;;;;;8.60;3.63;;;21.00;52.30;;;;;;4976575;28;87948;-69
2022/03/14 08:45:04;;;;;;;5.97;2.97;;;21.00;51.80;;;;;;4989432;28;87997;-69
2022/03/14 08:47:29;;;;;;;10.07;3.70;;;21.00;52.00;;;;;;4989747;28;87956;-69
2022/03/14 08:49:55;;;;;;;11.38;3.78;;;21.00;52.30;;;;;;4987640;28;88239;-69
2022/03/14 08:52:21;;;;;;;5.68;2.95;;;21.00;52.00;;;;;;4989898;28;87760;-69
2022/03/14 08:54:46;;;;;;;5.68;2.72;;;21.00;52.20;;;;;;4990075;28;87208;-69
2022/03/14 08:57:12;;;;;;;8.55;3.42;;;21.00;52.50;;;;;;5003921;28;89231;-69
2022/03/14 08:59:38;;;;;;;10.55;3.20;;;21.00;52.60;;;;;;4989472;28;88004;-70
2022/03/14 09:02:04;;;;;;;8.65;3.30;;;21.10;52.80;;;;;;4989492;28;88450;-70
2022/03/14 09:04:29;;;;;;;10.68;3.63;;;21.10;52.40;;;;;;4988368;28;87545;-70
2022/03/14 09:06:55;;;;;;;8.38;3.33;;;21.00;51.50;;;;;;4986403;28;87970;-70
2022/03/14 09:09:21;;;;;;;8.48;3.70;;;21.00;51.70;;;;;;4987393;28;87808;-70
2022/03/14 09:11:46;;;;;;;12.68;3.35;;;21.00;51.80;;;;;;4991943;28;87572;-70
2022/03/14 09:14:12;;;;;;;6.18;2.97;;;21.00;51.90;;;;;;4990710;28;86965;-70
2022/03/14 09:16:41;;;;;;;9.77;3.67;;;21.00;52.40;;;;;;5003511;28;90626;-71
2022/03/14 09:19:06;;;;;;;6.18;3.05;;;21.00;52.10;;;;;;4987490;28;88439;-71
2022/03/14 09:21:32;;;;;;;9.10;3.72;;;20.90;52.20;;;;;;4986726;28;87606;-71
2022/03/14 09:23:58;;;;;;;7.75;3.50;;;20.90;52.10;;;;;;4985339;28;87733;-71
2022/03/14 09:26:24;;;;;;;11.07;3.35;;;21.00;51.70;;;;;;4987787;28;89914;-71
2022/03/14 09:28:50;;;;;;;8.00;3.33;;;21.00;52.30;;;;;;4991202;28;90637;-71
2022/03/14 09:31:19;;;;;;;8.90;3.35;;;21.00;52.30;;;;;;4987173;28;87927;-70
2022/03/14 09:33:45;;;;;;;10.88;3.15;;;21.00;52.10;;;;;;4986531;28;88801;-69
2022/03/14 09:36:11;;;;;;;11.10;3.25;;;21.00;51.70;;;;;;4986927;28;88198;-68
2022/03/14 09:38:36;;;;;;;8.13;3.05;;;21.00;51.70;;;;;;5002859;28;90300;-69
2022/03/14 09:41:04;;;;;;;8.65;3.20;;;21.00;51.90;;;;;;4988631;28;86883;-70
2022/03/14 09:43:37;;;;;;;8.90;3.83;;;21.00;51.70;;;;;;4987761;28;87448;-72
2022/03/14 09:46:06;;;;;;;8.35;3.42;;;21.00;51.40;;;;;;5002178;28;90354;-70
2022/03/14 09:48:36;;;;;;;9.40;3.37;;;21.00;51.20;;;;;;4987628;28;87957;-72
2022/03/14 09:51:04;;;;;;;7.75;3.40;;;20.90;51.10;;;;;;4987198;28;88021;-74
2022/03/14 09:53:33;;;;;;;8.43;3.50;;;20.90;50.90;;;;;;4987476;28;88158;-74
2022/03/14 09:55:59;;;;;;;8.80;3.13;;;21.00;51.20;;;;;;4986333;28;91239;-70
2022/03/14 09:58:24;;;;;;;9.48;3.63;;;20.90;50.80;;;;;;4987507;28;88337;-70
2022/03/14 10:00:50;;;;;;;8.05;3.13;;;20.90;50.50;;;;;;5003256;28;87439;-70
2022/03/14 10:03:18;;;;;;;9.45;3.53;;;20.90;50.30;;;;;;4988154;28;87634;-73
2022/03/14 10:05:44;;;;;;;10.13;3.25;;;20.90;50.20;;;;;;4987307;28;87839;-74
2022/03/14 10:08:11;;;;;;;10.52;3.30;;;20.90;49.60;;;;;;4988065;28;87904;-74
2022/03/14 10:10:37;;;;;;;5.90;2.83;;;20.90;49.30;;;;;;4987936;28;87402;-74
2022/03/14 10:13:07;;;;;;;7.97;3.35;;;20.90;49.00;;;;;;4988408;28;87427;-75
2022/03/14 10:15:37;;;;;;;6.28;2.50;;;20.90;48.90;;;;;;4987078;28;89534;-74
2022/03/14 10:33:08;;;;;;;6.85;2.90;;;20.80;48.40;;;;;;4973290;27;87324;-72
2022/03/14 10:35:35;;;;;;;5.95;2.53;;;20.70;50.40;;;;;;5003400;28;85983;-72
2022/03/14 10:38:04;;;;;;;7.93;2.67;;;20.80;50.50;;;;;;4972268;28;86017;-72
2022/03/14 10:40:31;;;;;;;7.43;2.60;;;20.80;50.70;;;;;;4973373;28;86895;-72
2022/03/14 10:42:57;;;;;;;7.68;2.85;;;20.80;50.60;;;;;;4971440;28;88888;-72
2022/03/14 10:45:23;;;;;;;7.80;2.92;;;20.70;50.80;;;;;;4989703;28;85781;-72
2022/03/14 10:47:54;;;;;;;7.25;2.95;;;20.70;51.40;;;;;;4975935;28;86445;-72
2022/03/14 10:50:32;;;;;;;7.63;2.63;;;20.60;51.40;;;;;;4980698;28;89447;-72
2022/03/14 10:53:11;;;;;;;7.00;2.40;;;20.60;51.70;;;;;;4970897;28;86376;-72
2022/03/14 10:55:47;;;;;;;6.45;2.53;;;20.60;52.00;;;;;;4977453;28;86395;-72
2022/03/14 10:58:18;;;;;;;5.78;2.85;;;20.60;52.30;;;;;;4976159;28;85657;-72
2022/03/14 11:00:58;;;;;;;5.55;2.60;;;20.60;52.60;;;;;;4974391;28;90023;-72
2022/03/14 11:03:27;;;;;;;7.35;2.95;;;20.50;52.70;;;;;;4976023;28;86386;-72
2022/03/14 11:05:54;;;;;;;;;;;20.50;52.80;;;;;;4966158;28;86312;-72
2022/03/14 11:08:31;;;;;;;6.25;2.53;;;20.60;53.10;;;;;;4977809;28;85618;-72
2022/03/14 11:10:59;;;;;;;7.47;2.63;;;20.50;53.00;;;;;;4972097;28;87654;-72
2022/03/14 11:13:26;;;;;;;8.57;2.63;;;20.50;53.10;;;;;;4973169;28;86210;-71
2022/03/14 11:15:52;;;;;;;5.57;2.47;;;20.50;53.20;;;;;;4972318;28;86162;-72
2022/03/14 11:18:18;;;;;;;5.05;2.63;;;20.50;53.10;;;;;;4970707;28;85679;-72
2022/03/14 11:20:44;;;;;;;7.05;2.45;;;20.50;53.00;;;;;;4969304;28;89021;-71
2022/03/14 11:23:10;;;;;;;12.85;2.63;;;20.50;53.30;;;;;;4988854;28;89198;-72
2022/03/14 11:25:38;;;;;;;10.98;2.55;;;20.50;53.50;;;;;;4972474;28;85628;-73
2022/03/14 11:28:04;;;;;;;6.53;2.78;;;20.50;53.60;;;;;;4990800;28;85843;-72
2022/03/14 11:30:34;;;;;;;8.60;2.40;;;20.50;53.60;;;;;;4973976;28;86845;-72
2022/03/14 11:33:01;;;;;;;6.30;2.35;;;20.50;53.60;;;;;;4960336;28;89779;-72
2022/03/14 11:35:27;;;;;;;7.35;2.42;;;20.50;53.50;;;;;;4961289;28;86133;-72
2022/03/14 11:37:55;;;;;;;7.20;2.53;;;20.50;53.60;;;;;;4963282;28;85630;-72
2022/03/14 11:40:22;;;;;;;7.38;2.47;;;20.50;53.70;;;;;;4962730;28;86289;-72
2022/03/14 11:42:48;;;;;;;11.18;2.78;;;20.50;53.90;;;;;;4961711;28;88551;-72
2022/03/14 11:45:15;;;;;;;7.22;2.25;;;20.50;53.90;;;;;;4961367;28;86095;-71
2022/03/14 11:47:42;;;;;;;4.93;2.53;;;20.50;53.90;;;;;;4955942;28;85801;-72
2022/03/14 11:50:09;;;;;;;5.50;2.88;;;20.50;54.00;;;;;;4962927;28;86964;-72
2022/03/14 11:52:42;;;;;;;8.20;2.65;;;20.50;54.10;;;;;;4956419;28;86232;-72
2022/03/14 11:55:21;;;;;;;7.68;2.45;;;20.50;53.50;;;;;;4961318;28;86000;-71
2022/03/14 11:57:47;;;;;;;5.38;2.55;;;20.50;54.10;;;;;;4962385;28;85904;-71
2022/03/14 12:00:24;;;;;;;7.53;2.60;;;20.50;54.00;;;;;;4961437;28;86668;-71
2022/03/14 12:02:52;;;;;;;8.55;2.55;;;20.50;54.20;;;;;;4962486;28;86075;-72
2022/03/14 12:05:44;;;;;;;4.65;2.20;;;20.50;53.70;;;;;;4961572;28;85693;-71
2022/03/14 12:08:15;;;;;;;8.10;2.47;;;20.50;53.60;;;;;;4960747;28;86047;-71
2022/03/14 12:10:41;;;;;;;10.55;2.47;;;20.40;54.30;;;;;;4956265;28;86360;-72
2022/03/14 12:13:07;;;;;;;11.38;2.40;;;20.50;54.30;;;;;;4960480;28;88398;-71
2022/03/14 12:15:47;;;;;;;7.63;2.47;;;20.40;54.00;;;;;;4961736;28;85615;-71
2022/03/14 12:18:26;;;;;;;12.10;3.33;;;20.50;54.10;;;;;;4959804;28;85891;-71
2022/03/14 12:20:59;;;;;;;43.22;8.57;;;20.50;54.40;;;;;;4962542;28;86998;-72
2022/03/14 12:23:30;;;;;;;15.27;5.18;;;20.50;54.10;;;;;;4960815;28;89547;-71
2022/03/14 12:25:58;;;;;;;22.95;5.22;;;20.50;54.20;;;;;;4962299;28;86425;-71
2022/03/14 12:28:33;;;;;;;24.27;5.22;;;20.50;54.00;;;;;;4961995;28;85976;-72
2022/03/14 12:31:13;;;;;;;27.42;5.85;;;20.50;53.90;;;;;;4962039;28;87079;-72
2022/03/14 12:33:44;;;;;;;17.95;5.03;;;20.50;53.80;;;;;;4962807;28;85802;-71
2022/03/14 12:36:24;;;;;;;19.50;5.18;;;20.50;54.00;;;;;;4960127;28;85696;-71
2022/03/14 12:39:18;;;;;;;27.23;5.47;;;20.50;53.90;;;;;;4962910;28;85444;-72
2022/03/14 12:41:43;;;;;;;22.92;5.50;;;20.50;54.10;;;;;;4962812;28;85977;-71
2022/03/14 12:44:33;;;;;;;19.83;5.43;;;20.50;53.90;;;;;;4961209;28;86336;-72
2022/03/14 12:47:01;;;;;;;21.48;5.20;;;20.50;53.90;;;;;;4962565;28;85781;-72
2022/03/14 12:49:49;;;;;;;19.55;4.57;;;20.50;54.20;;;;;;4961607;28;85725;-71
2022/03/14 12:52:19;;;;;;;19.83;5.03;;;20.60;54.10;;;;;;4976921;28;90131;-72
2022/03/14 12:54:47;;;;;;;24.08;5.55;;;20.60;53.80;;;;;;4960938;28;86607;-72
2022/03/14 12:57:13;;;;;;;21.75;5.15;;;20.60;53.70;;;;;;4963635;28;85875;-71
2022/03/14 12:59:45;;;;;;;19.75;5.82;;;20.60;53.70;;;;;;4962335;28;85634;-72
2022/03/14 13:02:25;;;;;;;19.88;5.32;;;20.60;53.50;;;;;;4950257;28;89124;-72